Terminal Aerodrome Forecast
Issued by NWS Pocatello, ID

Home | Current Version | Previous Version | Text Only | Print | Product List | Glossary On
Versions: 1 2 3 4 5 6 7 8 9 10 11 12 13 14 15
000
FTUS45 KPIH 300526 AAA
TAFPIH
TAF AMD
KPIH 300526Z 3005/3106 15008KT P6SM VCTS BKN120CB
     FM301000 21009KT P6SM SCT120
     FM301800 25022G32KT P6SM FEW150
     FM310300 22008KT P6SM SKC=

USA.gov is the U.S. government's official web portal to all federal, state and local government web resources and services.